Time;durP1;ratioP1;P1;durP2;ratioP2;P2;SDS_P1;SDS_P2;PMS_P1;PMS_P2;Temp;Humidity;BMP_temperature;BMP_pressure;BME280_temperature;BME280_humidity;BME280_pressure;Samples;Min_cycle;Max_cycle;Signal;HPM_P1;HPM_P2
2023/01/18 00:00:46;;;;;;;24.63;2.97;;;;;;;20.35;64.43;96754.84;7311757;19;131718;-39
2023/01/18 00:03:13;;;;;;;6.25;1.40;;;;;;;20.33;65.05;96752.44;7309945;19;129340;-37
2023/01/18 00:05:39;;;;;;;16.52;2.15;;;;;;;20.37;64.39;96760.66;7311355;19;129388;-39
2023/01/18 00:08:10;;;;;;;34.58;3.70;;;;;;;20.37;65.31;96752.84;7312754;19;129156;-39
2023/01/18 00:10:36;;;;;;;15.75;2.45;;;;;;;20.38;64.77;96759.66;7312943;19;128964;-39
2023/01/18 00:13:02;;;;;;;27.42;3.25;;;;;;;20.36;64.93;96759.06;7310665;19;129019;-39
2023/01/18 00:15:27;;;;;;;30.83;4.28;;;;;;;20.39;64.93;96759.47;7310158;19;131197;-38
2023/01/18 00:17:53;;;;;;;23.55;2.92;;;;;;;20.37;64.27;96755.44;7311876;19;129578;-41
2023/01/18 00:20:23;;;;;;;20.40;2.73;;;;;;;20.30;64.87;96744.19;7311904;19;128923;-39
2023/01/18 00:22:50;;;;;;;25.20;3.40;;;;;;;20.38;64.51;96751.81;7309642;19;130155;-40
2023/01/18 00:25:16;;;;;;;20.80;3.15;;;;;;;20.44;65.06;96748.44;7310529;19;130988;-39
2023/01/18 00:27:50;;;;;;;18.90;2.40;;;;;;;20.46;64.90;96756.88;7311655;19;129296;-37
2023/01/18 00:30:19;;;;;;;24.85;3.05;;;;;;;20.47;64.41;96750.63;7312155;19;129078;-40
2023/01/18 00:32:46;;;;;;;16.15;2.38;;;;;;;20.49;64.24;96756.47;7309205;19;129369;-38
2023/01/18 00:35:12;;;;;;;;;;;;;;;20.44;65.00;96738.00;7310521;19;129620;-38
2023/01/18 00:37:38;;;;;;;18.73;2.50;;;;;;;20.50;64.53;96758.06;7311359;19;128970;-40
2023/01/18 00:40:05;;;;;;;22.17;2.92;;;;;;;20.50;64.44;96755.44;7312744;19;128849;-38
2023/01/18 00:45:15;;;;;;;23.42;3.30;;;;;;;20.48;64.41;96760.88;7309939;19;130343;-39
2023/01/18 00:47:40;;;;;;;14.15;2.05;;;;;;;20.50;64.50;96752.81;7311473;19;129281;-38
2023/01/18 00:50:06;;;;;;;11.48;1.80;;;;;;;20.49;64.87;96751.22;7311565;19;128944;-40
2023/01/18 00:52:33;;;;;;;28.33;3.33;;;;;;;20.43;64.53;96736.38;7309567;19;130127;-38
2023/01/18 00:54:59;;;;;;;13.63;2.00;;;;;;;20.45;64.64;96744.81;7311685;19;130228;-38
2023/01/18 00:57:24;;;;;;;15.53;2.20;;;;;;;20.44;64.44;96744.00;7310177;19;128971;-38
2023/01/18 00:59:50;;;;;;;16.17;2.22;;;;;;;20.56;64.12;96758.03;7312171;19;128759;-39
2023/01/18 01:02:15;;;;;;;19.30;2.47;;;;;;;20.52;64.63;96753.44;7310880;19;129879;-40
2023/01/18 01:07:25;;;;;;;15.27;2.13;;;;;;;20.46;64.88;96736.75;7311976;19;129048;-36
2023/01/18 01:09:50;;;;;;;12.68;2.17;;;;;;;20.56;64.69;96752.81;7310902;19;129165;-40
2023/01/18 01:26:09;;;;;;;21.17;2.90;;;;;;;20.61;63.85;96742.59;7310970;19;130316;-35
2023/01/18 01:28:49;;;;;;;19.98;2.70;;;;;;;20.60;64.75;96745.41;7311515;19;130042;-40
2023/01/18 01:31:16;;;;;;;10.07;1.70;;;;;;;20.48;63.96;96728.72;7311367;19;128971;-40
2023/01/18 01:33:41;;;;;;;12.88;2.15;;;;;;;20.61;64.68;96765.25;7308294;19;129182;-41
2023/01/18 01:36:10;;;;;;;16.88;2.22;;;;;;;20.57;64.23;96753.63;7310359;19;131115;-40
2023/01/18 01:38:37;;;;;;;20.42;2.92;;;;;;;20.61;64.57;96755.63;7310872;19;129754;-39
2023/01/18 01:41:03;;;;;;;;;;;;;;;20.64;64.90;96759.66;7312002;19;128856;-37
2023/01/18 01:43:45;;;;;;;13.32;1.98;;;;;;;20.63;64.47;96748.41;7310066;19;129403;-38
2023/01/18 01:46:44;;;;;;;18.58;2.45;;;;;;;20.63;64.50;96747.59;7317252;19;130519;-38
2023/01/18 01:49:16;;;;;;;24.48;2.85;;;;;;;20.60;64.45;96742.78;7317629;19;129002;-41
2023/01/18 01:52:01;;;;;;;16.48;1.98;;;;;;;20.62;64.76;96740.78;7316862;19;129142;-38
2023/01/18 01:54:41;;;;;;;24.50;2.97;;;;;;;20.60;64.83;96737.56;7316818;19;129428;-40
2023/01/18 01:57:11;;;;;;;14.93;2.10;;;;;;;20.60;64.16;96733.16;7315898;19;129285;-41
2023/01/18 01:59:41;;;;;;;20.10;2.78;;;;;;;20.51;64.02;96723.91;7317206;19;128959;-39
2023/01/18 02:02:09;;;;;;;13.55;2.08;;;;;;;20.61;63.95;96728.72;7317844;19;129032;-38
2023/01/18 02:04:35;;;;;;;19.33;2.42;;;;;;;20.52;63.94;96709.06;7314455;19;129459;-40
2023/01/18 02:07:00;;;;;;;18.73;2.58;;;;;;;20.65;63.90;96730.75;7312655;19;130836;-40
2023/01/18 02:09:26;;;;;;;35.25;3.70;;;;;;;20.66;64.34;96731.53;7316112;19;129266;-39
2023/01/18 02:11:53;;;;;;;13.43;2.00;;;;;;;20.65;63.86;96735.16;7317026;19;128965;-36
2023/01/18 02:14:23;;;;;;;15.40;2.35;;;;;;;20.59;64.10;96730.75;7316776;19;129511;-41
2023/01/18 02:17:16;;;;;;;8.30;1.48;;;;;;;20.63;64.25;96727.53;7315752;19;129655;-41
2023/01/18 02:20:22;;;;;;;31.48;3.72;;;;;;;20.65;64.59;96725.53;7317266;19;128999;-40
2023/01/18 02:23:09;;;;;;;16.60;2.15;;;;;;;20.64;64.64;96738.78;7314324;19;128768;-39
2023/01/18 02:25:50;;;;;;;14.82;2.03;;;;;;;20.64;64.71;96733.56;7316426;19;129217;-39
2023/01/18 02:28:19;;;;;;;12.68;1.92;;;;;;;20.49;64.38;96714.69;7316064;19;130417;-42
2023/01/18 02:30:50;;;;;;;14.20;2.00;;;;;;;20.60;64.08;96727.13;7317584;19;129233;-40
2023/01/18 02:33:24;;;;;;;20.85;2.50;;;;;;;20.60;64.45;96732.34;7314511;19;129253;-42
2023/01/18 02:35:53;;;;;;;15.30;2.45;;;;;;;20.62;64.38;96736.38;7315615;19;130243;-39
2023/01/18 02:38:43;;;;;;;14.45;2.40;;;;;;;20.63;64.34;96737.16;7315843;19;129478;-39
2023/01/18 02:47:14;;;;;;;21.48;2.67;;;;;;;20.58;64.02;96729.13;7315500;19;129439;-39
2023/01/18 02:49:40;;;;;;;14.60;2.15;;;;;;;20.61;63.98;96739.16;7316801;19;130703;-41
2023/01/18 02:52:07;;;;;;;27.83;3.33;;;;;;;20.56;64.40;96731.94;7314728;19;129183;-42
2023/01/18 02:54:35;;;;;;;;;;;;;;;20.51;64.29;96717.91;7314687;19;129417;-40
2023/01/18 02:57:08;;;;;;;25.20;3.08;;;;;;;20.55;64.22;96730.34;7312591;19;129217;-40
2023/01/18 02:59:47;;;;;;;24.27;3.10;;;;;;;20.54;64.32;96730.56;7315056;19;129750;-39
2023/01/18 03:02:17;;;;;;;38.92;5.18;;;;;;;20.55;64.22;96725.13;7313599;19;129633;-40
2023/01/18 03:04:53;;;;;;;12.68;2.03;;;;;;;20.56;63.82;96731.16;7312183;19;129613;-42
2023/01/18 03:07:29;;;;;;;15.93;2.42;;;;;;;20.55;64.53;96734.75;7313725;19;130088;-40
2023/01/18 03:09:56;;;;;;;20.27;2.53;;;;;;;20.54;63.98;96735.78;7313740;19;131186;-40
2023/01/18 03:12:46;;;;;;;23.60;2.92;;;;;;;20.57;64.82;96733.56;7312946;19;128933;-40
2023/01/18 03:15:21;;;;;;;18.83;2.42;;;;;;;20.60;64.14;96741.00;7314604;19;128956;-37
2023/01/18 03:17:53;;;;;;;27.92;3.53;;;;;;;20.57;64.73;96737.97;7313248;19;129352;-40
2023/01/18 03:20:31;;;;;;;28.08;3.00;;;;;;;20.53;64.52;96742.78;7315248;19;131093;-40
2023/01/18 03:25:47;;;;;;;17.43;2.50;;;;;;;20.53;64.05;96734.97;7313574;19;129008;-39
2023/01/18 03:34:12;;;;;;;20.45;2.72;;;;;;;20.08;63.71;96743.53;7312412;19;129337;-39
2023/01/18 03:36:43;;;;;;;20.55;2.92;;;;;;;20.03;63.60;96745.16;7313587;19;129195;-41
2023/01/18 03:39:14;;;;;;;7.40;1.40;;;;;;;20.06;63.09;96749.97;7313146;19;129629;-41
2023/01/18 03:41:43;;;;;;;35.40;4.60;;;;;;;20.08;63.11;96747.97;7311891;19;131284;-37
2023/01/18 03:44:25;;;;;;;17.70;2.38;;;;;;;20.17;62.96;96746.78;7312182;19;129221;-38
2023/01/18 03:46:50;;;;;;;18.88;2.65;;;;;;;20.23;62.84;96751.22;7311422;19;129109;-37
2023/01/18 03:49:17;;;;;;;15.52;2.22;;;;;;;20.25;63.16;96751.81;7312969;19;129745;-40
2023/01/18 03:51:42;;;;;;;13.83;2.10;;;;;;;20.26;62.46;96748.22;7313642;19;130678;-39
2023/01/18 03:54:32;;;;;;;24.23;2.92;;;;;;;20.25;63.09;96746.59;7313413;19;128946;-37
2023/01/18 03:57:16;;;;;;;24.13;2.88;;;;;;;20.23;63.11;96754.63;7309721;19;128759;-39
2023/01/18 03:59:42;;;;;;;27.23;2.97;;;;;;;20.17;62.71;96747.59;7310652;19;132016;-37
2023/01/18 04:02:08;;;;;;;26.58;3.70;;;;;;;20.21;62.70;96750.63;7310653;19;129314;-39
2023/01/18 04:04:33;;;;;;;12.15;1.95;;;;;;;20.15;63.56;96749.59;7311519;19;128978;-41
2023/01/18 04:06:58;;;;;;;14.68;2.30;;;;;;;20.11;63.05;96742.34;7307358;19;129228;-36
2023/01/18 04:09:25;;;;;;;15.75;2.20;;;;;;;20.09;63.30;96746.97;7311709;19;129288;-38
2023/01/18 04:11:50;;;;;;;30.23;3.57;;;;;;;20.04;63.39;96750.19;7313300;19;129784;-39
2023/01/18 04:14:16;;;;;;;13.68;2.17;;;;;;;19.97;63.40;96727.69;7313374;19;129455;-39
2023/01/18 04:16:41;;;;;;;16.23;2.30;;;;;;;20.04;63.41;96741.53;7311435;19;128839;-39
2023/01/18 04:19:07;;;;;;;21.83;2.67;;;;;;;19.94;64.12;96733.28;7313877;19;129498;-38
2023/01/18 04:21:33;;;;;;;19.37;2.50;;;;;;;20.00;63.66;96745.56;7312631;19;131515;-40
2023/01/18 04:23:58;;;;;;;15.77;2.58;;;;;;;20.00;63.67;96753.38;7310037;19;128961;-36
2023/01/18 04:26:24;;;;;;;19.77;2.83;;;;;;;20.02;63.76;96743.53;7311791;19;129820;-39
2023/01/18 04:28:49;;;;;;;23.50;2.93;;;;;;;19.87;64.30;96730.69;7312935;19;128960;-39
2023/01/18 04:31:15;;;;;;;20.83;2.60;;;;;;;19.99;64.20;96741.31;7313869;19;130333;-38
2023/01/18 04:33:40;;;;;;;20.27;2.65;;;;;;;19.99;64.44;96738.72;7310464;19;128919;-42
2023/01/18 04:36:06;;;;;;;31.50;3.72;;;;;;;20.00;64.19;96735.91;7310037;19;130026;-40
2023/01/18 04:38:31;;;;;;;18.13;2.47;;;;;;;20.00;64.23;96742.94;7312416;19;130116;-38
2023/01/18 04:41:02;;;;;;;13.00;1.83;;;;;;;19.97;63.57;96725.06;7312851;19;129198;-41
2023/01/18 04:43:28;;;;;;;20.85;2.88;;;;;;;20.12;63.22;96736.13;7309428;19;129526;-37
2023/01/18 04:45:54;;;;;;;29.48;3.97;;;;;;;20.25;62.94;96755.25;7308779;19;129953;-39
2023/01/18 04:48:20;;;;;;;44.38;5.88;;;;;;;20.39;62.74;96763.88;7308270;19;130124;-40
2023/01/18 04:50:47;;;;;;;17.67;2.23;;;;;;;20.35;62.21;96739.19;7307680;19;130875;-40
2023/01/18 04:53:13;;;;;;;25.25;3.05;;;;;;;20.56;62.49;96752.81;7309216;19;128937;-40
2023/01/18 04:55:38;;;;;;;26.03;3.53;;;;;;;20.67;62.08;96752.22;7306341;19;129649;-39
2023/01/18 04:58:03;;;;;;;22.15;3.22;;;;;;;20.74;62.09;96755.63;7303497;19;129930;-34
2023/01/18 05:00:29;;;;;;;12.85;1.90;;;;;;;20.78;61.75;96761.25;7305320;19;132037;-40
2023/01/18 05:02:54;;;;;;;17.50;2.33;;;;;;;20.85;60.80;96764.66;7306346;19;131516;-39
2023/01/18 05:05:19;;;;;;;41.40;4.65;;;;;;;20.86;61.44;96775.91;7307302;19;128996;-38
2023/01/18 05:07:45;;;;;;;20.63;2.55;;;;;;;20.77;61.16;96767.47;7309248;19;129495;-39
2023/01/18 05:10:11;;;;;;;14.93;2.10;;;;;;;20.87;61.13;96780.94;7307190;19;130597;-38
2023/01/18 05:12:37;;;;;;;51.75;6.63;;;;;;;20.86;60.84;96784.53;7306605;19;129250;-38
2023/01/18 05:15:03;;;;;;;26.60;3.43;;;;;;;20.87;60.70;96785.34;7309419;19;128900;-35
2023/01/18 05:17:29;;;;;;;54.25;7.05;;;;;;;20.80;61.32;96787.16;7307727;19;129151;-38
2023/01/18 05:19:55;;;;;;;13.63;2.13;;;;;;;20.77;61.36;96785.75;7316347;19;130203;-39
2023/01/18 05:22:21;;;;;;;16.98;2.20;;;;;;;20.79;61.37;96785.56;7316135;19;129247;-39
2023/01/18 05:24:48;;;;;;;32.88;3.90;;;;;;;20.66;61.29;96788.94;7316680;19;128917;-39
2023/01/18 05:27:14;;;;;;;17.73;2.53;;;;;;;20.54;61.66;96780.16;7317652;19;130410;-41
2023/01/18 05:29:39;;;;;;;15.70;2.55;;;;;;;20.58;62.36;96779.53;7311057;19;129559;-40
2023/01/18 05:32:09;;;;;;;32.72;4.13;;;;;;;20.46;62.58;96772.53;7315665;19;129514;-39
2023/01/18 05:34:34;;;;;;;27.38;3.33;;;;;;;20.46;62.06;96780.34;7316431;19;129406;-38
2023/01/18 05:37:00;;;;;;;23.90;2.85;;;;;;;20.42;62.11;96786.97;7317410;19;129504;-36
2023/01/18 05:39:25;;;;;;;15.05;2.33;;;;;;;20.38;63.02;96790.97;7316907;19;129674;-37
2023/01/18 05:41:50;;;;;;;27.57;3.73;;;;;;;20.35;62.37;96793.97;7316764;19;129744;-40
2023/01/18 05:44:16;;;;;;;27.20;3.47;;;;;;;20.30;62.80;96801.59;7312601;19;129375;-37
2023/01/18 05:46:41;;;;;;;7.63;1.63;;;;;;;20.28;63.33;96801.00;7311954;19;131727;-40
2023/01/18 05:49:07;;;;;;;19.52;2.65;;;;;;;20.26;63.54;96808.22;7316309;19;129454;-40
2023/01/18 05:51:32;;;;;;;32.00;4.30;;;;;;;20.23;63.09;96809.41;7315165;19;129519;-36
2023/01/18 05:53:58;;;;;;;21.35;2.83;;;;;;;20.22;62.95;96802.59;7313870;19;128947;-38
2023/01/18 05:56:23;;;;;;;26.40;3.60;;;;;;;20.12;63.42;96785.69;7316003;19;129774;-40
2023/01/18 05:58:48;;;;;;;20.38;2.47;;;;;;;20.18;63.04;96798.75;7317178;19;129612;-38
2023/01/18 06:01:14;;;;;;;15.82;2.42;;;;;;;20.01;63.04;96775.84;7317627;19;129484;-40
2023/01/18 06:03:40;;;;;;;26.33;3.60;;;;;;;20.14;63.36;96801.94;7312290;19;130328;-38
2023/01/18 06:06:05;;;;;;;17.98;2.63;;;;;;;20.10;63.53;96793.69;7314807;19;130502;-36
2023/01/18 06:08:31;;;;;;;29.77;4.05;;;;;;;20.09;63.62;96799.13;7313519;19;130415;-39
2023/01/18 06:10:58;;;;;;;29.33;3.65;;;;;;;20.11;63.94;96797.13;7313621;19;129402;-40
2023/01/18 06:13:28;;;;;;;16.45;2.22;;;;;;;20.12;63.77;96801.31;7313953;19;129265;-38
2023/01/18 06:15:55;;;;;;;19.10;2.55;;;;;;;20.12;63.43;96801.31;7312260;19;131418;-39
2023/01/18 06:18:22;;;;;;;32.88;4.13;;;;;;;20.11;63.51;96804.94;7313332;19;129741;-38
2023/01/18 06:20:48;;;;;;;25.63;3.22;;;;;;;20.11;63.92;96799.72;7314559;19;129671;-38
2023/01/18 06:23:13;;;;;;;46.17;5.57;;;;;;;20.03;63.63;96786.88;7311679;19;129459;-38
2023/01/18 06:25:42;;;;;;;25.88;3.10;;;;;;;20.12;64.10;96801.31;7311709;19;131394;-38
2023/01/18 06:28:08;;;;;;;17.50;2.40;;;;;;;20.06;63.84;96781.25;7314880;19;130473;-38
2023/01/18 06:30:35;;;;;;;24.48;3.35;;;;;;;20.04;63.92;96783.25;7310231;19;129391;-38
2023/01/18 06:33:05;;;;;;;18.52;2.42;;;;;;;20.13;64.25;96800.34;7313621;19;129516;-39
2023/01/18 06:35:33;;;;;;;17.73;2.40;;;;;;;20.13;63.92;96802.97;7313282;19;129748;-41
2023/01/18 06:38:03;;;;;;;20.38;2.67;;;;;;;20.13;64.70;96811.56;7314684;19;129084;-40
2023/01/18 06:40:29;;;;;;;19.80;2.70;;;;;;;20.15;64.44;96814.00;7315168;19;129006;-38
2023/01/18 06:42:55;;;;;;;38.13;4.32;;;;;;;20.05;64.44;96790.88;7313572;19;129404;-38
2023/01/18 06:45:24;;;;;;;27.52;3.88;;;;;;;20.20;64.58;96809.00;7306903;19;134162;-41
2023/01/18 06:47:51;;;;;;;31.30;3.33;;;;;;;20.19;64.80;96812.63;7315004;19;129569;-39
2023/01/18 06:50:19;;;;;;;36.38;4.60;;;;;;;20.21;65.35;96821.06;7313528;19;129151;-37
2023/01/18 06:52:47;;;;;;;25.65;3.20;;;;;;;20.27;64.93;96822.88;7313224;19;129326;-40
2023/01/18 06:55:13;;;;;;;37.08;5.13;;;;;;;20.27;64.94;96825.47;7315116;19;129019;-38
2023/01/18 06:57:40;;;;;;;;;;;;;;;20.30;65.57;96819.84;7314860;19;131363;-38
2023/01/18 07:00:08;;;;;;;15.98;2.45;;;;;;;20.34;65.21;96834.94;7315096;19;129770;-38
2023/01/18 07:02:35;;;;;;;24.30;2.95;;;;;;;20.30;65.03;96838.13;7309203;19;130878;-38
2023/01/18 07:05:02;;;;;;;9.98;2.00;;;;;;;20.19;64.98;96818.66;7312072;19;130900;-39
2023/01/18 07:07:33;;;;;;;15.25;2.25;;;;;;;20.13;64.81;96829.81;7313357;19;131144;-39
2023/01/18 07:10:00;;;;;;;14.77;2.20;;;;;;;20.16;63.68;96847.72;7314092;19;129112;-41
2023/01/18 07:12:26;;;;;;;22.42;2.83;;;;;;;20.10;63.77;96838.03;7313965;19;129534;-38
2023/01/18 07:14:53;;;;;;;18.42;2.47;;;;;;;20.04;63.95;96841.44;7314796;19;129001;-37
2023/01/18 07:17:19;;;;;;;32.75;3.95;;;;;;;20.03;64.51;96847.66;7310357;19;130224;-39
2023/01/18 07:19:46;;;;;;;15.30;2.15;;;;;;;19.99;64.05;96843.03;7313253;19;129044;-41
2023/01/18 07:22:13;;;;;;;26.98;3.40;;;;;;;19.95;64.36;96842.59;7312983;19;129129;-38
2023/01/18 07:24:39;;;;;;;8.77;1.77;;;;;;;19.96;64.23;96859.88;7306829;19;129269;-40
2023/01/18 07:27:06;;;;;;;15.10;2.25;;;;;;;20.00;63.99;96853.25;7313270;19;129208;-40
2023/01/18 07:29:32;;;;;;;15.60;2.55;;;;;;;20.01;64.23;96846.25;7314571;19;128945;-40
2023/01/18 07:31:59;;;;;;;31.73;4.07;;;;;;;19.99;63.53;96848.25;7313096;19;129414;-36
2023/01/18 07:34:26;;;;;;;21.55;2.75;;;;;;;20.02;63.62;96850.44;7310138;19;129505;-38
2023/01/18 07:36:53;;;;;;;14.13;1.98;;;;;;;20.03;64.01;96852.06;7310714;19;130969;-39
2023/01/18 07:39:19;;;;;;;16.05;2.20;;;;;;;20.05;64.01;96857.88;7312468;19;129002;-38
2023/01/18 07:41:46;;;;;;;20.65;2.38;;;;;;;20.08;63.21;96853.06;7310633;19;128918;-38
2023/01/18 07:44:12;;;;;;;;;;;;;;;20.04;63.82;96856.28;7313048;19;129381;-41
2023/01/18 07:46:41;;;;;;;21.85;2.92;;;;;;;20.04;63.79;96845.84;7312962;19;130472;-38
2023/01/18 07:49:08;;;;;;;20.60;2.50;;;;;;;20.19;63.14;96872.63;7312240;19;129702;-40
2023/01/18 07:51:34;;;;;;;20.05;2.63;;;;;;;20.17;63.25;96877.22;7311135;19;128921;-40
2023/01/18 07:54:01;;;;;;;27.13;3.22;;;;;;;20.28;63.33;96874.06;7308584;19;130166;-40
2023/01/18 07:56:29;;;;;;;12.35;1.95;;;;;;;20.26;62.99;96882.06;7309703;19;129573;-38
2023/01/18 07:58:56;;;;;;;32.15;3.47;;;;;;;20.29;63.01;96883.47;7312679;19;129532;-40
2023/01/18 08:01:23;;;;;;;23.48;2.95;;;;;;;20.33;63.07;96882.88;7313532;19;129008;-38
2023/01/18 08:03:50;;;;;;;33.25;3.58;;;;;;;20.33;63.19;96882.88;7310893;19;129130;-38
2023/01/18 08:06:23;;;;;;;16.98;2.42;;;;;;;20.30;62.44;96887.69;7312994;19;129836;-38
2023/01/18 08:08:56;;;;;;;27.17;3.88;;;;;;;20.37;62.86;96894.53;7312176;19;129178;-38
2023/01/18 08:11:22;;;;;;;4.40;1.10;;;;;;;20.31;63.23;96895.31;7312955;19;129004;-40
2023/01/18 08:13:51;;;;;;;;;;;;;;;20.27;63.40;96898.53;7311268;19;129672;-41
2023/01/18 08:16:17;;;;;;;12.50;2.17;;;;;;;20.29;63.12;96899.94;7312832;19;129787;-40
2023/01/18 08:18:44;;;;;;;15.18;2.38;;;;;;;20.25;62.71;96908.34;7313774;19;130188;-41
2023/01/18 08:21:12;;;;;;;13.73;2.00;;;;;;;20.21;62.97;96914.97;7313572;19;129201;-41
2023/01/18 08:23:39;;;;;;;18.80;2.38;;;;;;;20.23;63.40;96915.59;7309638;19;129857;-41
2023/01/18 08:26:07;;;;;;;23.05;3.30;;;;;;;20.18;63.63;96915.34;7312871;19;129801;-40
2023/01/18 08:28:33;;;;;;;15.02;2.13;;;;;;;20.11;63.88;96904.88;7312534;19;129276;-41
2023/01/18 08:31:08;;;;;;;;;;;;;;;20.15;63.91;96931.38;7313198;19;128808;-40
2023/01/18 08:33:39;;;;;;;16.17;2.13;;;;;;;20.15;63.85;96920.94;7310148;19;130034;-40
2023/01/18 08:36:09;;;;;;;26.50;3.20;;;;;;;20.12;63.43;96926.53;7311095;19;129830;-39
2023/01/18 08:38:35;;;;;;;23.80;3.28;;;;;;;20.14;63.39;96924.53;7310584;19;129154;-38
2023/01/18 08:41:02;;;;;;;6.25;1.40;;;;;;;20.11;63.54;96920.53;7312387;19;128948;-41
2023/01/18 08:43:29;;;;;;;13.02;2.17;;;;;;;20.11;63.85;96924.94;7310638;19;128957;-41
2023/01/18 08:45:56;;;;;;;29.65;3.40;;;;;;;20.11;63.42;96925.75;7309059;19;129523;-40
2023/01/18 08:48:22;;;;;;;20.20;2.80;;;;;;;20.09;63.88;96925.13;7311340;19;128908;-39
2023/01/18 08:50:49;;;;;;;24.55;2.63;;;;;;;20.08;63.77;96933.16;7310272;19;129454;-39
2023/01/18 08:53:15;;;;;;;20.33;2.85;;;;;;;20.08;63.70;96939.16;7308448;19;129602;-40
2023/01/18 08:55:42;;;;;;;21.75;2.67;;;;;;;20.07;63.73;96945.38;7311333;19;129961;-40
2023/01/18 08:58:10;;;;;;;23.35;2.88;;;;;;;20.04;64.09;96945.75;7313079;19;129862;-39
2023/01/18 09:00:37;;;;;;;13.07;2.08;;;;;;;19.98;64.20;96930.09;7312238;19;128843;-39
2023/01/18 09:03:05;;;;;;;16.10;2.07;;;;;;;20.06;64.08;96949.00;7307414;19;131823;-41
2023/01/18 09:05:34;;;;;;;25.50;3.40;;;;;;;20.07;63.81;96950.59;7309108;19;129331;-40
2023/01/18 09:08:00;;;;;;;23.38;2.85;;;;;;;19.97;64.05;96934.50;7309755;19;129030;-36
2023/01/18 09:10:27;;;;;;;14.03;2.30;;;;;;;20.07;63.89;96950.59;7310981;19;128996;-38
2023/01/18 09:12:54;;;;;;;17.95;2.38;;;;;;;20.06;63.98;96954.22;7307900;19;129628;-39
2023/01/18 09:15:21;;;;;;;20.42;2.58;;;;;;;20.05;63.74;96954.38;7311233;19;129790;-40
2023/01/18 09:17:47;;;;;;;25.52;3.10;;;;;;;20.04;64.14;96961.41;7308839;19;128861;-40
2023/01/18 09:20:14;;;;;;;15.55;2.20;;;;;;;20.03;63.84;96957.19;7311354;19;129453;-40
2023/01/18 09:22:41;;;;;;;14.35;2.28;;;;;;;20.04;64.06;96973.63;7309889;19;130186;-38
2023/01/18 09:25:08;;;;;;;23.13;2.95;;;;;;;20.01;64.25;96977.44;7308167;19;129902;-40
2023/01/18 09:27:35;;;;;;;21.88;2.88;;;;;;;20.03;63.89;96974.66;7310801;19;129715;-38
2023/01/18 09:30:02;;;;;;;23.30;2.78;;;;;;;20.05;64.38;96972.63;7310534;19;128965;-39
2023/01/18 09:32:29;;;;;;;;;;;;;;;20.04;64.77;96976.25;7309555;19;129352;-40
2023/01/18 09:34:56;;;;;;;26.50;3.30;;;;;;;20.06;63.74;96979.47;7309873;19;129723;-39
2023/01/18 09:37:25;;;;;;;18.63;2.60;;;;;;;20.03;64.13;96979.88;7309721;19;128942;-39
2023/01/18 09:39:51;;;;;;;1.95;0.93;;;;;;;19.99;64.15;96978.63;7308304;19;131931;-40
2023/01/18 09:42:23;;;;;;;13.40;2.13;;;;;;;20.00;63.97;96977.66;7309420;19;129226;-40
2023/01/18 09:44:54;;;;;;;13.30;1.90;;;;;;;19.99;64.01;96983.84;7309180;19;129749;-40
2023/01/18 09:47:30;;;;;;;28.10;3.42;;;;;;;19.91;64.15;96970.97;7309354;19;128770;-39
2023/01/18 09:50:01;;;;;;;20.95;2.67;;;;;;;20.01;64.18;96989.69;7310242;19;129213;-39
2023/01/18 09:52:51;;;;;;;20.15;2.55;;;;;;;20.01;65.73;96993.09;7309276;19;132350;-39
2023/01/18 09:55:41;;;;;;;29.08;4.07;;;;;;;20.03;64.51;96990.28;7311106;19;129166;-39
2023/01/18 09:58:21;;;;;;;21.63;2.53;;;;;;;20.01;64.86;96987.88;7311283;19;129015;-40
2023/01/18 10:00:54;;;;;;;13.32;1.90;;;;;;;19.93;64.16;96974.19;7310310;19;129266;-40
2023/01/18 10:03:33;;;;;;;26.08;3.67;;;;;;;20.01;65.03;96981.84;7306002;19;129214;-38
2023/01/18 10:06:08;;;;;;;18.38;2.50;;;;;;;20.03;64.24;96990.28;7312756;19;129332;-38
2023/01/18 10:08:56;;;;;;;29.25;3.47;;;;;;;20.01;65.40;96992.28;7316689;19;129341;-38
2023/01/18 10:11:28;;;;;;;22.80;2.80;;;;;;;20.01;64.12;96992.28;7316128;19;129324;-40
2023/01/18 10:14:14;;;;;;;25.73;2.92;;;;;;;20.01;64.40;96994.88;7312130;19;129540;-40
2023/01/18 10:16:40;;;;;;;29.00;3.60;;;;;;;20.01;64.57;96993.09;7314580;19;129851;-39
2023/01/18 10:19:31;;;;;;;15.95;2.25;;;;;;;20.00;65.17;96995.91;7315218;19;130046;-40
2023/01/18 10:22:05;;;;;;;18.05;2.33;;;;;;;19.98;64.88;96995.28;7315129;19;129123;-38
2023/01/18 10:25:01;;;;;;;16.55;2.35;;;;;;;19.97;64.59;96997.06;7316505;19;129687;-38
2023/01/18 10:28:03;;;;;;;17.45;2.35;;;;;;;19.87;65.03;96974.94;7314122;19;129346;-38
2023/01/18 10:31:14;;;;;;;20.92;2.55;;;;;;;19.95;64.57;96993.06;7317425;19;128756;-41
2023/01/18 10:33:42;;;;;;;15.93;2.10;;;;;;;19.96;64.72;96989.44;7307686;19;129064;-38
2023/01/18 10:36:37;;;;;;;24.75;3.13;;;;;;;19.97;65.21;96991.03;7313490;19;129186;-39
2023/01/18 10:39:22;;;;;;;24.38;3.08;;;;;;;19.90;65.03;96980.59;7315827;19;129849;-40
2023/01/18 10:41:50;;;;;;;34.40;3.45;;;;;;;19.91;64.28;96979.59;7314714;19;129090;-38
2023/01/18 10:44:16;;;;;;;21.15;2.45;;;;;;;19.98;64.04;96997.88;7315688;19;129015;-36
2023/01/18 10:46:43;;;;;;;14.85;1.80;;;;;;;19.91;64.65;96991.81;7316492;19;129890;-38
2023/01/18 10:49:37;;;;;;;18.88;2.30;;;;;;;19.97;65.69;97004.09;7316003;19;129235;-40
2023/01/18 10:52:25;;;;;;;20.48;3.03;;;;;;;19.99;65.62;97007.31;7313797;19;129179;-41
2023/01/18 10:54:54;;;;;;;14.48;2.38;;;;;;;19.90;65.10;96998.03;7316292;19;129538;-40
2023/01/18 10:57:29;;;;;;;18.85;2.33;;;;;;;19.95;64.92;97008.72;7313709;19;129765;-38
2023/01/18 10:59:56;;;;;;;18.08;2.78;;;;;;;19.97;64.11;97024.94;7311123;19;130222;-41
2023/01/18 11:02:37;;;;;;;16.05;2.40;;;;;;;19.97;65.52;97022.34;7314324;19;128787;-39
2023/01/18 11:05:23;;;;;;;14.50;2.10;;;;;;;19.95;64.76;97030.34;7315093;19;129092;-40
2023/01/18 11:08:13;;;;;;;15.07;2.38;;;;;;;19.93;65.27;97034.16;7312474;19;130251;-40
2023/01/18 11:10:40;;;;;;;15.55;2.38;;;;;;;19.94;64.34;97036.56;7314112;19;129587;-38
2023/01/18 11:13:25;;;;;;;16.75;2.15;;;;;;;19.93;64.63;97034.94;7312974;19;129255;-40
2023/01/18 11:16:17;;;;;;;16.05;2.38;;;;;;;19.90;64.71;97037.16;7309004;19;129142;-38
2023/01/18 11:18:59;;;;;;;13.77;1.90;;;;;;;19.93;65.42;97044.59;7315214;19;130302;-39
2023/01/18 11:21:29;;;;;;;26.30;3.05;;;;;;;19.94;64.52;97039.19;7314591;19;129305;-39
2023/01/18 11:23:56;;;;;;;21.33;2.67;;;;;;;19.95;64.22;97042.59;7310718;19;129599;-36
2023/01/18 11:26:24;;;;;;;34.28;3.72;;;;;;;19.95;64.71;97042.59;7312017;19;130504;-39
2023/01/18 11:29:04;;;;;;;15.10;2.20;;;;;;;19.85;64.99;97023.88;7314690;19;129550;-40
2023/01/18 11:31:46;;;;;;;27.95;3.30;;;;;;;19.95;64.95;97040.00;7315291;19;129834;-40
2023/01/18 11:34:42;;;;;;;20.05;3.15;;;;;;;19.97;65.30;97049.22;7314017;19;129754;-38
2023/01/18 11:37:30;;;;;;;15.70;2.28;;;;;;;19.95;65.21;97051.22;7313754;19;128689;-38
2023/01/18 11:39:56;;;;;;;20.10;2.80;;;;;;;19.96;64.30;97052.03;7314688;19;129511;-40
2023/01/18 11:42:27;;;;;;;;;;;;;;;19.96;65.13;97054.63;7313587;19;129284;-40
2023/01/18 11:45:17;;;;;;;20.88;2.65;;;;;;;19.94;64.76;97054.84;7312361;19;129342;-40
2023/01/18 11:48:22;;;;;;;15.60;2.53;;;;;;;19.93;64.48;97062.84;7314347;19;129831;-39
2023/01/18 11:50:53;;;;;;;13.80;2.08;;;;;;;19.94;64.13;97064.44;7315211;19;129475;-38
2023/01/18 11:53:46;;;;;;;16.52;2.55;;;;;;;19.92;64.36;97069.03;7311314;19;129198;-41
2023/01/18 11:56:23;;;;;;;14.77;2.03;;;;;;;19.91;64.66;97075.25;7312079;19;128802;-38
2023/01/18 11:58:49;;;;;;;17.92;2.83;;;;;;;19.89;64.21;97083.28;7312738;19;128740;-40
2023/01/18 12:01:28;;;;;;;25.40;3.08;;;;;;;19.90;64.55;97091.91;7314290;19;129098;-40
2023/01/18 12:04:12;;;;;;;20.75;2.58;;;;;;;19.91;64.48;97090.91;7311802;19;129224;-41
2023/01/18 12:07:02;;;;;;;15.93;2.50;;;;;;;19.90;64.76;97089.31;7312872;19;130360;-40
2023/01/18 12:09:59;;;;;;;6.03;1.48;;;;;;;19.93;64.45;97094.13;7314241;19;129284;-41